createdAt,value
2022-11-05T00:02:38.634Z,11.80
2022-11-05T00:05:27.894Z,11.80
2022-11-05T00:08:14.162Z,11.90
2022-11-05T00:10:42.729Z,11.90
2022-11-05T00:13:30.170Z,11.90
2022-11-05T00:16:15.553Z,11.90
2022-11-05T00:18:43.802Z,12.00
2022-11-05T00:21:27.335Z,12.00
2022-11-05T00:24:13.026Z,12.00
2022-11-05T00:26:41.326Z,12.00
2022-11-05T00:29:09.548Z,12.00
2022-11-05T00:31:39.903Z,12.00
2022-11-05T00:34:08.261Z,12.00
2022-11-05T00:36:37.902Z,12.00
2022-11-05T00:39:07.219Z,12.10
2022-11-05T00:41:35.476Z,12.00
2022-11-05T00:44:21.083Z,12.10
2022-11-05T00:46:49.348Z,12.10
2022-11-05T00:49:40.242Z,12.10
2022-11-05T00:52:23.689Z,12.20
2022-11-05T00:54:51.916Z,12.20
2022-11-05T00:57:20.118Z,12.20
2022-11-05T00:59:48.397Z,12.20
2022-11-05T01:02:16.977Z,12.20
2022-11-05T01:04:45.332Z,12.20
2022-11-05T01:07:15.044Z,12.20
2022-11-05T01:09:43.346Z,12.20
2022-11-05T01:12:11.589Z,12.20
2022-11-05T01:14:39.986Z,12.20
2022-11-05T01:17:08.265Z,12.20
2022-11-05T01:19:36.503Z,12.20
2022-11-05T01:22:04.759Z,12.20
2022-11-05T01:24:34.424Z,12.10
2022-11-05T01:27:02.783Z,12.10
2022-11-05T01:29:31.041Z,12.10
2022-11-05T01:31:59.510Z,12.10
2022-11-05T01:34:27.777Z,12.10
2022-11-05T01:36:56.333Z,12.10
2022-11-05T01:39:24.639Z,12.10
2022-11-05T01:41:54.254Z,12.10
2022-11-05T01:44:53.336Z,12.10
2022-11-05T01:47:42.336Z,12.10
2022-11-05T01:50:24.082Z,12.10
2022-11-05T01:52:57.504Z,12.10
2022-11-05T01:55:30.521Z,12.10
2022-11-05T01:58:01.686Z,12.10
2022-11-05T02:00:30.121Z,12.00
2022-11-05T02:02:59.009Z,12.10
2022-11-05T02:05:27.839Z,12.10
2022-11-05T02:07:56.944Z,12.10
2022-11-05T02:10:25.790Z,12.10
2022-11-05T02:12:54.551Z,12.10
2022-11-05T02:15:31.316Z,12.10
2022-11-05T02:18:14.272Z,12.10
2022-11-05T02:20:52.418Z,12.10
2022-11-05T02:23:59.549Z,12.10
2022-11-05T02:26:53.690Z,12.10
2022-11-05T02:30:04.441Z,12.10
2022-11-05T02:32:43.116Z,12.10
2022-11-05T02:35:23.871Z,12.10
2022-11-05T02:37:55.241Z,12.10
2022-11-05T02:40:28.766Z,12.10
2022-11-05T02:43:04.996Z,12.10
2022-11-05T02:45:42.708Z,12.10
2022-11-05T02:48:20.494Z,12.10
2022-11-05T02:50:57.082Z,12.10
2022-11-05T02:53:35.075Z,12.10
2022-11-05T02:56:08.929Z,12.10
2022-11-05T02:58:37.271Z,12.10
2022-11-05T03:01:07.146Z,12.10
2022-11-05T03:03:41.077Z,12.10
2022-11-05T03:06:46.882Z,12.10
2022-11-05T03:09:30.924Z,12.10
2022-11-05T03:12:09.280Z,12.10
2022-11-05T03:14:44.953Z,12.10
2022-11-05T03:17:21.103Z,12.10
2022-11-05T03:19:59.258Z,12.10
2022-11-05T03:22:32.441Z,12.10
2022-11-05T03:25:08.198Z,12.10
2022-11-05T03:27:40.539Z,12.10
2022-11-05T03:30:11.080Z,12.10
2022-11-05T03:32:43.521Z,12.10
2022-11-05T03:35:17.641Z,12.10
2022-11-05T03:37:50.707Z,12.10
2022-11-05T03:40:22.991Z,12.10
2022-11-05T03:42:56.180Z,12.20
2022-11-05T03:45:29.579Z,12.20
2022-11-05T03:48:01.343Z,12.10
2022-11-05T03:50:41.305Z,12.10
2022-11-05T03:53:16.583Z,12.10
2022-11-05T03:55:52.817Z,12.10
2022-11-05T03:58:22.369Z,12.10
2022-11-05T04:00:52.091Z,12.10
2022-11-05T04:03:20.401Z,12.20
2022-11-05T04:06:10.465Z,12.10
2022-11-05T04:08:55.940Z,12.20
2022-11-05T04:11:41.672Z,12.20
2022-11-05T04:14:09.926Z,12.20
2022-11-05T04:16:55.521Z,12.10
2022-11-05T04:19:37.673Z,12.10
2022-11-05T04:22:24.605Z,12.10
2022-11-05T04:24:52.889Z,12.10
2022-11-05T04:27:21.120Z,12.10
2022-11-05T04:30:06.553Z,12.10
2022-11-05T04:32:34.789Z,12.10
2022-11-05T04:35:03.052Z,12.10
2022-11-05T04:37:32.834Z,12.00
2022-11-05T04:40:01.067Z,12.10
2022-11-05T04:42:29.511Z,12.10
2022-11-05T04:44:57.761Z,12.10
2022-11-05T04:47:26.020Z,12.00
2022-11-05T04:49:54.266Z,12.00
2022-11-05T04:52:22.581Z,12.00
2022-11-05T04:54:52.417Z,12.00
2022-11-05T04:57:20.635Z,12.00
2022-11-05T04:59:49.866Z,12.00
2022-11-05T05:02:18.201Z,12.00
2022-11-05T05:04:46.715Z,12.00
2022-11-05T05:07:14.996Z,12.00
2022-11-05T05:09:43.259Z,12.00
2022-11-05T05:12:12.917Z,12.00
2022-11-05T05:14:41.141Z,12.00
2022-11-05T05:17:09.375Z,12.00
2022-11-05T05:19:51.444Z,12.10
2022-11-05T05:22:19.776Z,12.00
2022-11-05T05:24:52.615Z,12.10
2022-11-05T05:27:23.541Z,12.10
2022-11-05T05:29:51.859Z,12.10
2022-11-05T05:32:20.175Z,12.10
2022-11-05T05:34:48.445Z,12.10
2022-11-05T05:37:17.413Z,12.20
2022-11-05T05:39:46.165Z,12.20
2022-11-05T05:42:14.889Z,12.10
2022-11-05T05:44:44.583Z,12.20
2022-11-05T05:47:12.830Z,12.20
2022-11-05T05:49:41.052Z,12.20
2022-11-05T05:52:09.273Z,12.20
2022-11-05T05:54:42.476Z,12.20
2022-11-05T05:57:11.947Z,12.30
2022-11-05T05:59:40.191Z,12.20
2022-11-05T06:02:11.116Z,12.30
2022-11-05T06:04:39.521Z,12.40
2022-11-05T06:07:08.897Z,12.30
2022-11-05T06:09:37.225Z,12.30
2022-11-05T06:12:06.210Z,12.40
2022-11-05T06:14:34.422Z,12.40
2022-11-05T06:17:02.642Z,12.40
2022-11-05T06:19:32.306Z,12.40
2022-11-05T06:22:00.559Z,12.40
2022-11-05T06:24:28.844Z,12.50
2022-11-05T06:26:57.360Z,12.50
2022-11-05T06:29:25.563Z,12.50
2022-11-05T06:31:54.029Z,12.50
2022-11-05T06:34:22.236Z,12.50
2022-11-05T06:36:51.855Z,12.60
2022-11-05T06:39:20.463Z,12.60
2022-11-05T06:42:16.747Z,12.60
2022-11-05T06:44:36.988Z,12.60
2022-11-05T06:47:05.361Z,12.70
2022-11-05T06:49:33.614Z,12.70
2022-11-05T06:52:03.254Z,12.70
2022-11-05T06:54:31.500Z,12.70
2022-11-05T06:57:01.976Z,12.70
2022-11-05T06:59:30.427Z,12.80
2022-11-05T07:01:58.773Z,12.80
2022-11-05T07:04:27.101Z,12.80
2022-11-05T07:06:55.414Z,12.80
2022-11-05T07:09:25.398Z,12.80
2022-11-05T07:11:53.639Z,12.80
2022-11-05T07:14:21.866Z,12.80
2022-11-05T07:16:50.137Z,12.90
2022-11-05T07:19:18.407Z,12.80
2022-11-05T07:21:48.574Z,12.90
2022-11-05T07:24:16.817Z,12.90
2022-11-05T07:26:46.474Z,12.90
2022-11-05T07:29:14.744Z,12.90
2022-11-05T07:31:43.236Z,13.00
2022-11-05T07:34:11.449Z,13.00
2022-11-05T07:36:40.069Z,13.00
2022-11-05T07:39:08.435Z,13.00
2022-11-05T07:41:36.689Z,13.10
2022-11-05T07:44:06.474Z,13.10
2022-11-05T07:46:34.837Z,13.10
2022-11-05T07:49:03.139Z,13.20
2022-11-05T07:51:31.387Z,13.20
2022-11-05T07:53:59.715Z,13.30
2022-11-05T07:56:28.118Z,13.30
2022-11-05T07:58:56.421Z,13.40
2022-11-05T08:01:26.420Z,13.40
2022-11-05T08:03:54.932Z,13.40
2022-11-05T08:06:23.403Z,13.50
2022-11-05T08:08:51.646Z,13.50
2022-11-05T08:11:20.194Z,13.50
2022-11-05T08:13:48.472Z,13.60
2022-11-05T08:16:16.710Z,13.60
2022-11-05T08:18:47.129Z,13.60
2022-11-05T08:21:15.425Z,13.60
2022-11-05T08:23:45.492Z,13.70
2022-11-05T08:26:13.746Z,13.70
2022-11-05T08:28:42.177Z,13.70
2022-11-05T08:31:10.434Z,13.70
2022-11-05T08:33:38.675Z,13.80
2022-11-05T08:36:09.746Z,13.80
2022-11-05T08:38:38.051Z,13.80
2022-11-05T08:41:06.488Z,13.90
2022-11-05T08:43:34.741Z,13.90
2022-11-05T08:46:03.276Z,13.90
2022-11-05T08:48:31.598Z,14.00
2022-11-05T08:51:01.828Z,14.00
2022-11-05T08:53:31.535Z,14.10
2022-11-05T08:56:00.666Z,14.10
2022-11-05T08:58:29.088Z,14.10
2022-11-05T09:01:03.377Z,14.20
2022-11-05T09:03:31.903Z,14.20
2022-11-05T09:06:00.091Z,14.30
2022-11-05T09:08:28.342Z,14.30
2022-11-05T09:10:58.017Z,14.30
2022-11-05T09:13:26.869Z,14.30
2022-11-05T09:15:55.436Z,14.30
2022-11-05T09:18:23.712Z,14.40
2022-11-05T09:20:51.954Z,14.40
2022-11-05T09:23:20.266Z,14.40
2022-11-05T09:25:48.823Z,14.50
2022-11-05T09:28:20.345Z,14.50
2022-11-05T09:30:50.212Z,14.50
2022-11-05T09:33:20.584Z,14.50
2022-11-05T09:35:49.290Z,14.50
2022-11-05T09:38:17.915Z,14.50
2022-11-05T09:40:55.775Z,14.50
2022-11-05T09:43:32.014Z,14.50
2022-11-05T09:46:04.858Z,14.60
2022-11-05T09:48:35.615Z,14.60
2022-11-05T09:51:06.809Z,14.60
2022-11-05T09:53:39.392Z,14.60
2022-11-05T09:56:20.103Z,14.60
2022-11-05T09:58:53.697Z,14.60
2022-11-05T10:01:27.304Z,14.60
2022-11-05T10:03:58.581Z,14.60
2022-11-05T10:06:28.811Z,14.60
2022-11-05T10:09:03.973Z,14.60
2022-11-05T10:11:36.830Z,14.50
2022-11-05T10:14:15.132Z,14.40
2022-11-05T10:16:47.708Z,14.40
2022-11-05T10:19:24.005Z,14.40
2022-11-05T10:22:10.193Z,14.40
2022-11-05T10:24:39.855Z,14.40
2022-11-05T10:27:08.253Z,14.40
2022-11-05T10:29:38.262Z,14.40
2022-11-05T10:32:07.446Z,14.50
2022-11-05T10:34:38.565Z,14.50
2022-11-05T10:37:07.236Z,14.60
2022-11-05T10:39:36.221Z,14.60
2022-11-05T10:42:25.866Z,14.60
2022-11-05T10:45:01.435Z,14.60
2022-11-05T10:47:46.285Z,14.60
2022-11-05T10:50:18.641Z,14.60
2022-11-05T10:52:56.639Z,14.60
2022-11-05T10:55:29.632Z,14.70
2022-11-05T10:58:10.269Z,14.70
2022-11-05T11:00:40.427Z,14.70
2022-11-05T11:03:35.371Z,14.80
2022-11-05T11:06:07.772Z,14.90
2022-11-05T11:08:37.750Z,14.90
2022-11-05T11:11:09.189Z,14.90
2022-11-05T11:13:52.407Z,14.90
2022-11-05T11:16:24.774Z,14.90
2022-11-05T11:18:55.205Z,14.90
2022-11-05T11:21:24.586Z,14.90
2022-11-05T11:23:57.772Z,15.00
2022-11-05T11:26:27.927Z,15.00
2022-11-05T11:29:00.687Z,15.00
2022-11-05T11:31:32.908Z,15.00
2022-11-05T11:34:04.691Z,15.00
2022-11-05T11:36:37.754Z,15.00
2022-11-05T11:39:07.927Z,15.00
2022-11-05T11:41:41.979Z,15.00
2022-11-05T11:44:17.755Z,15.00
2022-11-05T11:46:52.335Z,14.90
2022-11-05T11:49:48.136Z,14.90
2022-11-05T11:52:18.758Z,14.80
2022-11-05T11:54:47.229Z,14.80
2022-11-05T11:57:27.093Z,14.80
2022-11-05T12:00:12.124Z,14.80
2022-11-05T12:03:19.667Z,14.90
2022-11-05T12:05:53.251Z,14.80
2022-11-05T12:08:38.246Z,14.80
2022-11-05T12:11:17.206Z,14.70
2022-11-05T12:14:04.099Z,14.70
2022-11-05T12:16:57.516Z,14.80
2022-11-05T12:19:43.942Z,14.80
2022-11-05T12:22:23.015Z,14.80
2022-11-05T12:25:25.962Z,14.80
2022-11-05T12:28:08.569Z,14.80
2022-11-05T12:30:44.006Z,14.80
2022-11-05T12:33:27.408Z,14.80
2022-11-05T12:36:10.037Z,14.80
2022-11-05T12:39:08.096Z,14.70
2022-11-05T12:41:44.694Z,14.60
2022-11-05T12:44:23.018Z,14.60
2022-11-05T12:47:03.534Z,14.60
2022-11-05T12:49:55.547Z,14.60
2022-11-05T12:53:01.974Z,14.60
2022-11-05T12:55:36.110Z,14.60
2022-11-05T12:58:10.464Z,14.60
2022-11-05T13:00:42.504Z,14.60
2022-11-05T13:03:25.761Z,14.70
2022-11-05T13:06:04.543Z,14.70
2022-11-05T13:08:41.119Z,14.70
2022-11-05T13:11:20.284Z,14.70
2022-11-05T13:13:55.408Z,14.70
2022-11-05T13:16:29.734Z,14.80
2022-11-05T13:19:01.114Z,14.80
2022-11-05T13:21:31.305Z,14.80
2022-11-05T13:24:07.066Z,14.80
2022-11-05T13:26:42.829Z,14.80
2022-11-05T13:29:16.953Z,14.80
2022-11-05T13:31:50.850Z,14.80
2022-11-05T13:34:19.079Z,14.80
2022-11-05T13:37:13.873Z,14.80
2022-11-05T13:39:49.113Z,14.90
2022-11-05T13:42:53.830Z,14.90
2022-11-05T13:45:49.563Z,14.90
2022-11-05T13:48:45.391Z,14.90
2022-11-05T13:51:43.053Z,14.90
2022-11-05T13:54:42.011Z,15.00
2022-11-05T13:57:56.312Z,15.00
2022-11-05T14:00:27.049Z,15.00
2022-11-05T14:02:58.089Z,15.00
2022-11-05T14:05:31.807Z,15.00
2022-11-05T14:08:03.618Z,15.10
2022-11-05T14:10:39.418Z,15.10
2022-11-05T14:13:21.978Z,15.10
2022-11-05T14:16:01.876Z,15.20
2022-11-05T14:18:42.737Z,15.20
2022-11-05T14:21:47.831Z,15.20
2022-11-05T14:24:42.635Z,15.30
2022-11-05T14:27:46.302Z,15.30
2022-11-05T14:30:42.811Z,15.30
2022-11-05T14:33:31.530Z,15.30
2022-11-05T14:36:31.617Z,15.20
2022-11-05T14:39:14.211Z,15.20
2022-11-05T14:42:03.333Z,15.10
2022-11-05T14:44:33.890Z,15.10
2022-11-05T14:47:06.333Z,15.00
2022-11-05T14:49:38.150Z,15.00
2022-11-05T14:52:10.198Z,15.00
2022-11-05T14:54:44.054Z,14.90
2022-11-05T14:57:15.655Z,15.00
2022-11-05T15:00:05.231Z,15.00
2022-11-05T15:02:37.815Z,15.00
2022-11-05T15:05:37.413Z,15.00
2022-11-05T15:08:31.593Z,15.00
2022-11-05T15:11:14.123Z,15.10
2022-11-05T15:13:52.692Z,15.10
2022-11-05T15:16:25.508Z,15.10
2022-11-05T15:18:57.733Z,15.10
2022-11-05T15:21:26.860Z,15.10
2022-11-05T15:23:58.279Z,15.10
2022-11-05T15:26:38.423Z,15.10
2022-11-05T15:29:17.354Z,15.00
2022-11-05T15:31:45.798Z,15.00
2022-11-05T15:34:24.374Z,15.00
2022-11-05T15:36:58.077Z,14.90
2022-11-05T15:39:32.295Z,14.90
2022-11-05T15:42:04.644Z,14.80
2022-11-05T15:44:34.865Z,14.80
2022-11-05T15:47:20.892Z,14.80
2022-11-05T15:49:53.484Z,14.70
2022-11-05T15:52:24.048Z,14.70
2022-11-05T15:55:09.889Z,14.60
2022-11-05T15:57:40.429Z,14.60
2022-11-05T16:00:17.665Z,14.50
2022-11-05T16:02:53.815Z,14.50
2022-11-05T16:05:26.441Z,14.50
2022-11-05T16:07:55.021Z,14.40
2022-11-05T16:10:25.381Z,14.40
2022-11-05T16:12:53.680Z,14.30
2022-11-05T16:15:24.438Z,14.40
2022-11-05T16:17:55.786Z,14.30
2022-11-05T16:20:32.241Z,14.30
2022-11-05T16:23:02.010Z,14.20
2022-11-05T16:25:37.890Z,14.20
2022-11-05T16:28:20.593Z,14.20
2022-11-05T16:30:57.100Z,14.10
2022-11-05T16:33:26.847Z,14.10
2022-11-05T16:35:57.068Z,14.10
2022-11-05T16:38:25.840Z,14.00
2022-11-05T16:40:54.115Z,14.00
2022-11-05T16:43:24.632Z,14.00
2022-11-05T16:45:55.903Z,13.90
2022-11-05T16:48:24.381Z,13.90
2022-11-05T16:50:53.180Z,13.80
2022-11-05T16:53:22.843Z,13.80
2022-11-05T16:55:51.236Z,13.80
2022-11-05T16:58:21.898Z,13.70
2022-11-05T17:00:51.001Z,13.70
2022-11-05T17:03:19.600Z,13.70
2022-11-05T17:05:48.530Z,13.60
2022-11-05T17:08:16.797Z,13.60
2022-11-05T17:10:46.687Z,13.60
2022-11-05T17:13:16.832Z,13.50
2022-11-05T17:15:46.753Z,13.50
2022-11-05T17:18:18.907Z,13.50
2022-11-05T17:20:49.049Z,13.50
2022-11-05T17:23:19.061Z,13.40
2022-11-05T17:25:51.260Z,13.40
2022-11-05T17:28:27.069Z,13.40
2022-11-05T17:30:57.334Z,13.40
2022-11-05T17:33:25.656Z,13.40
2022-11-05T17:35:54.618Z,13.30
2022-11-05T17:38:24.512Z,13.30
2022-11-05T17:40:54.831Z,13.30
2022-11-05T17:43:23.136Z,13.30
2022-11-05T17:45:52.899Z,13.20
2022-11-05T17:48:21.984Z,13.20
2022-11-05T17:50:51.603Z,13.20
2022-11-05T17:53:20.757Z,13.20
2022-11-05T17:55:49.627Z,13.20
2022-11-05T17:58:19.287Z,13.20
2022-11-05T18:00:48.715Z,13.10
2022-11-05T18:03:17.027Z,13.10
2022-11-05T18:05:45.706Z,13.10
2022-11-05T18:08:14.069Z,13.10
2022-11-05T18:10:43.018Z,13.10
2022-11-05T18:13:12.647Z,13.00
2022-11-05T18:15:42.791Z,13.00
2022-11-05T18:18:11.144Z,13.00
2022-11-05T18:20:40.041Z,13.00
2022-11-05T18:23:08.441Z,13.00
2022-11-05T18:25:36.871Z,12.90
2022-11-05T18:28:05.414Z,13.00
2022-11-05T18:30:34.273Z,12.90
2022-11-05T18:33:03.988Z,12.90
2022-11-05T18:35:32.423Z,12.90
2022-11-05T18:38:00.783Z,12.90
2022-11-05T18:40:29.097Z,12.90
2022-11-05T18:42:57.356Z,12.80
2022-11-05T18:45:29.768Z,12.80
2022-11-05T18:47:58.387Z,12.80
2022-11-05T18:50:28.597Z,12.80
2022-11-05T18:52:56.964Z,12.70
2022-11-05T18:55:25.613Z,12.70
2022-11-05T18:57:53.924Z,12.70
2022-11-05T19:00:22.448Z,12.70
2022-11-05T19:02:51.127Z,12.70
2022-11-05T19:05:29.060Z,12.70
2022-11-05T19:07:59.187Z,12.70
2022-11-05T19:10:28.127Z,12.70
2022-11-05T19:12:56.529Z,12.70
2022-11-05T19:15:24.853Z,12.70
2022-11-05T19:17:53.342Z,12.70
2022-11-05T19:20:21.656Z,12.60
2022-11-05T19:22:50.086Z,12.60
2022-11-05T19:25:20.037Z,12.60
2022-11-05T19:27:48.281Z,12.60
2022-11-05T19:30:16.686Z,12.60
2022-11-05T19:32:45.093Z,12.60
2022-11-05T19:35:13.631Z,12.60
2022-11-05T19:37:41.867Z,12.60
2022-11-05T19:40:11.477Z,12.60
2022-11-05T19:42:41.195Z,12.60
2022-11-05T19:45:38.449Z,12.60
2022-11-05T19:47:58.904Z,12.60
2022-11-05T19:50:27.878Z,12.60
2022-11-05T19:52:56.137Z,12.50
2022-11-05T19:55:24.511Z,12.60
2022-11-05T19:58:00.357Z,12.60
2022-11-05T20:00:28.711Z,12.50
2022-11-05T20:02:57.243Z,12.50
2022-11-05T20:05:25.635Z,12.60
2022-11-05T20:07:53.997Z,12.60
2022-11-05T20:10:22.745Z,12.60
2022-11-05T20:12:51.737Z,12.60
2022-11-05T20:15:21.605Z,12.60
2022-11-05T20:17:51.329Z,12.70
2022-11-05T20:20:20.588Z,12.70
2022-11-05T20:22:48.997Z,12.70
2022-11-05T20:25:17.438Z,12.70
2022-11-05T20:27:45.778Z,12.70
2022-11-05T20:30:14.480Z,12.70
2022-11-05T20:32:44.215Z,12.70
2022-11-05T20:35:12.887Z,12.70
2022-11-05T20:37:41.174Z,12.70
2022-11-05T20:40:10.572Z,12.80
2022-11-05T20:42:39.043Z,12.80
2022-11-05T20:45:08.489Z,12.80
2022-11-05T20:47:37.590Z,12.80
2022-11-05T20:50:09.382Z,12.80
2022-11-05T20:52:37.718Z,12.90
2022-11-05T20:55:09.167Z,12.90
2022-11-05T20:57:38.460Z,12.90
2022-11-05T21:00:08.383Z,13.00
2022-11-05T21:02:39.053Z,13.00
2022-11-05T21:05:10.192Z,13.00
2022-11-05T21:07:38.731Z,13.00
2022-11-05T21:12:53.821Z,13.00
2022-11-05T21:15:23.373Z,13.00
2022-11-05T21:17:52.053Z,13.00
2022-11-05T21:20:21.770Z,12.90
2022-11-05T21:22:50.105Z,13.00
2022-11-05T21:25:18.483Z,13.00
2022-11-05T21:27:47.188Z,13.00
2022-11-05T21:30:15.953Z,13.00
2022-11-05T21:32:44.300Z,13.00
2022-11-05T21:35:12.716Z,13.00
2022-11-05T21:37:42.401Z,13.10
2022-11-05T21:40:12.927Z,13.10
2022-11-05T21:42:41.264Z,13.10
2022-11-05T21:45:10.210Z,13.10
2022-11-05T21:47:38.511Z,13.20
2022-11-05T21:50:07.651Z,13.20
2022-11-05T21:52:53.310Z,13.20
2022-11-05T21:55:36.942Z,13.20
2022-11-05T21:58:35.094Z,13.20
2022-11-05T22:01:03.935Z,13.20
2022-11-05T22:03:32.497Z,13.20
2022-11-05T22:06:00.801Z,13.20
2022-11-05T22:08:29.258Z,13.20
2022-11-05T22:10:59.055Z,13.20
2022-11-05T22:13:27.379Z,13.20
2022-11-05T22:15:56.519Z,13.20
2022-11-05T22:18:25.044Z,13.20
2022-11-05T22:20:53.606Z,13.20
2022-11-05T22:23:21.864Z,13.20
2022-11-05T22:25:50.099Z,13.10
2022-11-05T22:28:19.812Z,13.10
2022-11-05T22:30:48.271Z,13.10
2022-11-05T22:33:17.217Z,13.20
2022-11-05T22:35:45.534Z,13.10
2022-11-05T22:38:14.205Z,13.10
2022-11-05T22:40:42.663Z,13.10
2022-11-05T22:43:10.914Z,13.10
2022-11-05T22:45:40.560Z,13.10
2022-11-05T22:48:09.304Z,13.20
2022-11-05T22:50:38.367Z,13.20
2022-11-05T22:53:06.639Z,13.20
2022-11-05T22:55:34.873Z,13.20
2022-11-05T22:58:03.120Z,13.20
2022-11-05T23:00:37.000Z,13.30
2022-11-05T23:03:08.480Z,13.30
2022-11-05T23:05:36.950Z,13.30
2022-11-05T23:08:22.765Z,13.30
2022-11-05T23:11:08.108Z,13.30
2022-11-05T23:13:36.431Z,13.30
2022-11-05T23:16:22.201Z,13.30
2022-11-05T23:19:09.323Z,13.30
2022-11-05T23:21:55.249Z,13.30
2022-11-05T23:24:23.506Z,13.30
2022-11-05T23:26:52.211Z,13.40
2022-11-05T23:29:22.353Z,13.30
2022-11-05T23:32:08.858Z,13.30
2022-11-05T23:34:38.890Z,13.30
2022-11-05T23:37:25.051Z,13.30
2022-11-05T23:39:53.550Z,13.30
2022-11-05T23:42:39.273Z,13.30
2022-11-05T23:45:25.992Z,13.30
2022-11-05T23:48:11.818Z,13.30
2022-11-05T23:50:42.165Z,13.30
2022-11-05T23:53:10.625Z,13.30
2022-11-05T23:55:39.568Z,13.20
2022-11-05T23:58:08.554Z,13.20
